createdAt,value
2023-03-06T00:00:19.890Z,33.00
2023-03-06T00:01:09.082Z,33.00
2023-03-06T00:01:49.098Z,32.00
2023-03-06T00:02:53.353Z,32.00
2023-03-06T00:03:31.786Z,30.33
2023-03-06T00:04:11.167Z,28.67
2023-03-06T00:04:50.258Z,26.00
2023-03-06T00:05:37.059Z,25.00
2023-03-06T00:06:16.261Z,24.00
2023-03-06T00:07:03.038Z,22.33
2023-03-06T00:08:06.986Z,21.00
2023-03-06T00:09:45.180Z,20.33
2023-03-06T00:10:48.562Z,20.00
2023-03-06T00:13:28.825Z,21.67
2023-03-06T00:14:33.108Z,22.00
2023-03-06T00:15:51.646Z,23.00
2023-03-06T00:17:34.166Z,24.00
2023-03-06T00:18:53.777Z,24.33
2023-03-06T00:19:37.629Z,24.33
2023-03-06T00:20:57.356Z,25.00
2023-03-06T00:22:40.068Z,25.00
2023-03-06T00:23:58.186Z,25.00
2023-03-06T00:25:38.904Z,25.67
2023-03-06T00:26:57.257Z,25.00
2023-03-06T00:29:00.002Z,25.00
2023-03-06T00:30:38.961Z,25.00
2023-03-06T00:31:18.307Z,25.00
2023-03-06T00:32:00.289Z,25.00
2023-03-06T00:32:39.597Z,25.00
2023-03-06T00:33:29.189Z,24.00
2023-03-06T00:34:33.041Z,24.00
2023-03-06T00:35:12.856Z,23.67
2023-03-06T00:35:53.258Z,22.33
2023-03-06T00:36:32.216Z,22.00
2023-03-06T00:37:14.169Z,21.33
2023-03-06T00:38:01.176Z,21.00
2023-03-06T00:38:40.216Z,20.67
2023-03-06T00:39:22.297Z,20.00
2023-03-06T00:40:02.302Z,20.00
2023-03-06T00:41:47.079Z,20.00
2023-03-06T00:43:04.373Z,20.33
2023-03-06T00:43:44.384Z,21.00
2023-03-06T00:44:24.214Z,21.00
2023-03-06T00:45:06.719Z,21.00
2023-03-06T00:46:10.632Z,21.00
2023-03-06T00:47:52.056Z,21.00
2023-03-06T00:49:53.305Z,21.00
2023-03-06T00:51:24.662Z,22.00
2023-03-06T00:52:05.207Z,22.00
2023-03-06T00:53:26.266Z,22.00
2023-03-06T00:54:46.131Z,22.00
2023-03-06T00:55:25.302Z,22.00
2023-03-06T00:56:04.342Z,22.00
2023-03-06T00:56:43.165Z,22.00
2023-03-06T00:57:25.316Z,22.00
2023-03-06T00:58:04.226Z,22.00
2023-03-06T00:58:43.297Z,23.00
2023-03-06T00:59:30.052Z,24.33
2023-03-06T01:00:17.320Z,27.00
2023-03-06T01:00:56.322Z,32.67
2023-03-06T01:01:38.342Z,40.67
2023-03-06T01:02:18.610Z,48.00
2023-03-06T01:02:57.783Z,56.33
2023-03-06T01:03:40.300Z,60.67
2023-03-06T01:04:22.834Z,65.33
2023-03-06T01:05:06.734Z,70.00
2023-03-06T01:05:46.171Z,82.67
2023-03-06T01:06:33.435Z,86.67
2023-03-06T01:07:12.353Z,95.67
2023-03-06T01:07:55.285Z,99.00
2023-03-06T01:08:34.795Z,98.67
2023-03-06T01:09:38.632Z,101.00
2023-03-06T01:10:27.342Z,105.67
2023-03-06T01:11:07.239Z,100.67
2023-03-06T01:12:11.028Z,106.00
2023-03-06T01:12:58.404Z,109.33
2023-03-06T01:13:37.230Z,119.67
2023-03-06T01:14:16.279Z,119.00
2023-03-06T01:15:34.598Z,120.00
2023-03-06T01:16:18.913Z,119.33
2023-03-06T01:17:39.719Z,120.33
2023-03-06T01:18:19.000Z,120.00
2023-03-06T01:18:59.734Z,117.67
2023-03-06T01:20:18.456Z,115.67
2023-03-06T01:21:37.404Z,115.00
2023-03-06T01:22:16.909Z,113.33
2023-03-06T01:22:56.762Z,112.00
2023-03-06T01:23:37.262Z,111.67
2023-03-06T01:25:06.800Z,111.00
2023-03-06T01:25:47.467Z,111.33
2023-03-06T01:27:08.250Z,114.00
2023-03-06T01:27:55.155Z,124.33
2023-03-06T01:28:35.318Z,129.67
2023-03-06T01:29:15.418Z,130.67
2023-03-06T01:30:54.950Z,124.67
2023-03-06T01:33:02.041Z,122.67
2023-03-06T01:33:42.222Z,121.33
2023-03-06T01:34:21.825Z,119.00
2023-03-06T01:35:09.788Z,116.00
2023-03-06T01:37:04.897Z,107.00
2023-03-06T01:40:42.431Z,100.00
2023-03-06T01:42:03.850Z,99.33
2023-03-06T01:42:53.076Z,99.00
2023-03-06T01:43:37.949Z,91.67
2023-03-06T01:44:27.119Z,89.00
2023-03-06T01:45:29.075Z,86.33
2023-03-06T01:46:17.023Z,86.00
2023-03-06T01:47:37.307Z,82.00
2023-03-06T01:48:21.507Z,81.00
2023-03-06T01:49:22.320Z,80.33
2023-03-06T01:51:05.373Z,77.00
2023-03-06T01:52:55.812Z,78.33
2023-03-06T01:53:40.104Z,77.33
2023-03-06T01:56:05.356Z,75.67
2023-03-06T01:56:43.906Z,76.00
2023-03-06T01:57:45.186Z,77.00
2023-03-06T01:59:03.227Z,77.00
2023-03-06T01:59:44.275Z,76.67
2023-03-06T02:00:29.264Z,76.33
2023-03-06T02:01:33.222Z,75.00
2023-03-06T02:02:11.846Z,72.67
2023-03-06T02:03:18.977Z,71.67
2023-03-06T02:04:40.475Z,72.00
2023-03-06T02:06:09.378Z,70.33
2023-03-06T02:07:21.287Z,69.00
2023-03-06T02:08:02.424Z,69.00
2023-03-06T02:08:42.384Z,69.67
2023-03-06T02:09:21.191Z,70.00
2023-03-06T02:10:00.307Z,70.33
2023-03-06T02:10:42.919Z,72.33
2023-03-06T02:11:24.964Z,73.00
2023-03-06T02:12:12.092Z,73.00
2023-03-06T02:12:52.327Z,72.33
2023-03-06T02:13:30.885Z,69.67
2023-03-06T02:14:10.284Z,67.67
2023-03-06T02:14:50.201Z,63.33
2023-03-06T02:16:13.282Z,62.00
2023-03-06T02:17:01.787Z,62.00
2023-03-06T02:18:05.587Z,63.00
2023-03-06T02:18:46.778Z,63.33
2023-03-06T02:19:45.706Z,64.00
2023-03-06T02:20:48.810Z,65.67
2023-03-06T02:22:09.007Z,67.00
2023-03-06T02:22:48.970Z,67.67
2023-03-06T02:23:27.807Z,68.00
2023-03-06T02:24:19.029Z,69.00
2023-03-06T02:25:47.681Z,69.00
2023-03-06T02:26:29.554Z,69.00
2023-03-06T02:27:12.516Z,69.00
2023-03-06T02:28:32.444Z,69.00
2023-03-06T02:30:11.095Z,70.00
2023-03-06T02:31:00.279Z,70.00
2023-03-06T02:31:40.244Z,70.67
2023-03-06T02:32:19.478Z,71.33
2023-03-06T02:32:58.969Z,72.00
2023-03-06T02:33:39.345Z,71.33
2023-03-06T02:34:28.047Z,71.33
2023-03-06T02:35:20.431Z,71.00
2023-03-06T02:36:02.657Z,71.00
2023-03-06T02:36:52.335Z,71.00
2023-03-06T02:37:32.208Z,71.00
2023-03-06T02:38:16.003Z,71.00
2023-03-06T02:48:24.637Z,1.00
2023-03-06T02:49:03.945Z,71.00
2023-03-06T02:49:42.937Z,91.00
2023-03-06T02:50:23.275Z,100.67
2023-03-06T02:51:03.086Z,100.33
2023-03-06T02:51:41.904Z,99.33
2023-03-06T02:52:33.814Z,98.67
2023-03-06T02:53:15.024Z,100.33
2023-03-06T02:53:54.590Z,102.00
2023-03-06T02:54:33.610Z,103.00
2023-03-06T02:55:16.696Z,102.33
2023-03-06T02:58:12.202Z,100.00
2023-03-06T02:58:51.667Z,99.33
2023-03-06T02:59:38.844Z,100.67
2023-03-06T03:02:55.157Z,101.33
2023-03-06T03:04:12.996Z,102.33
2023-03-06T03:04:52.714Z,99.67
2023-03-06T03:05:32.032Z,101.33
2023-03-06T03:06:13.981Z,101.33
2023-03-06T03:07:02.714Z,101.33
2023-03-06T03:08:06.419Z,101.33
2023-03-06T03:09:25.632Z,103.00
2023-03-06T03:10:05.553Z,103.67
2023-03-06T03:11:36.187Z,103.33
2023-03-06T03:12:55.598Z,102.00
2023-03-06T03:13:36.518Z,102.33
2023-03-06T03:15:02.220Z,102.00
2023-03-06T03:15:41.463Z,102.00
2023-03-06T03:16:58.717Z,102.00
2023-03-06T03:18:02.594Z,101.67
2023-03-06T03:19:35.617Z,102.00
2023-03-06T03:20:21.222Z,101.33
2023-03-06T03:21:09.591Z,98.67
2023-03-06T03:21:49.717Z,98.00
2023-03-06T03:22:28.033Z,99.00
2023-03-06T03:23:06.701Z,99.67
2023-03-06T03:23:53.782Z,100.00
2023-03-06T03:25:33.829Z,100.00
2023-03-06T03:26:19.350Z,100.00
2023-03-06T03:27:39.737Z,99.33
2023-03-06T03:28:22.011Z,99.00
2023-03-06T03:29:00.672Z,99.00
2023-03-06T03:29:39.493Z,99.00
2023-03-06T03:30:21.680Z,99.00
2023-03-06T03:31:25.889Z,100.00
2023-03-06T03:32:05.754Z,99.67
2023-03-06T03:33:26.212Z,98.67
2023-03-06T03:34:44.045Z,99.33
2023-03-06T03:36:08.322Z,100.00
2023-03-06T03:36:47.759Z,100.00
2023-03-06T03:37:28.235Z,101.00
2023-03-06T03:38:07.667Z,102.00
2023-03-06T03:38:47.224Z,101.33
2023-03-06T03:39:26.652Z,99.33
2023-03-06T03:40:30.564Z,98.33
2023-03-06T03:42:01.497Z,108.33
2023-03-06T03:42:42.119Z,120.33
2023-03-06T03:44:16.178Z,115.33
2023-03-06T03:45:35.224Z,112.67
2023-03-06T03:46:14.706Z,111.33
2023-03-06T03:46:55.012Z,111.00
2023-03-06T03:47:34.500Z,110.67
2023-03-06T03:48:14.184Z,110.00
2023-03-06T03:48:53.774Z,110.00
2023-03-06T03:49:33.053Z,111.00
2023-03-06T03:50:12.191Z,112.00
2023-03-06T03:52:34.035Z,123.33
2023-03-06T03:53:13.005Z,127.67
2023-03-06T03:53:51.696Z,128.00
2023-03-06T03:55:23.843Z,160.00
2023-03-06T03:56:03.913Z,160.00
2023-03-06T03:58:00.990Z,153.00
2023-03-06T04:00:39.798Z,154.67
2023-03-06T04:01:20.000Z,158.67
2023-03-06T04:01:59.672Z,153.67
2023-03-06T04:02:38.712Z,151.67
2023-03-06T04:03:21.161Z,149.00
2023-03-06T04:04:01.675Z,147.33
2023-03-06T04:04:42.256Z,150.33
2023-03-06T04:05:22.524Z,151.33
2023-03-06T04:07:20.650Z,172.00
2023-03-06T04:08:37.898Z,171.67
2023-03-06T04:09:18.008Z,178.00
2023-03-06T04:09:58.626Z,190.33
2023-03-06T04:10:37.544Z,185.67
2023-03-06T04:11:16.661Z,176.33
2023-03-06T04:11:55.974Z,171.33
2023-03-06T04:12:35.845Z,170.33
2023-03-06T04:13:15.010Z,169.00
2023-03-06T04:13:55.273Z,170.00
2023-03-06T04:14:35.896Z,172.33
2023-03-06T04:15:24.974Z,168.67
2023-03-06T04:16:05.584Z,166.67
2023-03-06T04:16:45.987Z,161.00
2023-03-06T04:18:13.790Z,140.00
2023-03-06T04:18:54.330Z,143.00
2023-03-06T04:19:37.320Z,144.00
2023-03-06T04:20:17.144Z,145.00
2023-03-06T04:20:56.087Z,142.67
2023-03-06T04:21:35.895Z,140.67
2023-03-06T04:22:15.868Z,139.33
2023-03-06T04:22:55.009Z,145.33
2023-03-06T04:23:34.111Z,168.33
2023-03-06T04:24:14.154Z,171.33
2023-03-06T04:24:53.128Z,168.33
2023-03-06T04:25:30.954Z,166.00
2023-03-06T04:26:18.902Z,165.33
2023-03-06T04:28:48.096Z,168.00
2023-03-06T04:29:30.042Z,165.33
2023-03-06T04:31:03.087Z,154.33
2023-03-06T04:33:30.026Z,141.33
2023-03-06T04:34:09.903Z,143.33
2023-03-06T04:34:50.069Z,143.33
2023-03-06T04:35:32.727Z,142.67
2023-03-06T04:36:34.702Z,144.67
2023-03-06T04:37:22.961Z,148.67
2023-03-06T04:38:02.507Z,148.33
2023-03-06T04:38:41.556Z,150.67
2023-03-06T04:39:20.895Z,151.67
2023-03-06T04:40:00.005Z,153.00
2023-03-06T04:40:39.144Z,171.00
2023-03-06T04:41:17.999Z,195.67
2023-03-06T04:41:58.094Z,205.00
2023-03-06T04:42:37.978Z,197.67
2023-03-06T04:43:24.927Z,199.67
2023-03-06T04:44:13.797Z,188.67
2023-03-06T04:45:44.203Z,170.33
2023-03-06T04:47:43.561Z,253.00
2023-03-06T04:48:22.992Z,226.33
2023-03-06T04:49:02.514Z,216.33
2023-03-06T04:49:42.154Z,210.33
2023-03-06T04:51:07.782Z,198.33
2023-03-06T04:51:48.036Z,175.00
2023-03-06T04:52:34.305Z,159.00
2023-03-06T04:53:22.742Z,150.00
2023-03-06T04:54:05.643Z,145.33
2023-03-06T04:54:46.244Z,152.67
2023-03-06T04:56:06.940Z,157.33
2023-03-06T04:56:46.912Z,166.67
2023-03-06T04:57:28.938Z,199.33
2023-03-06T04:58:07.995Z,245.33
2023-03-06T04:58:47.271Z,252.33
2023-03-06T04:59:26.975Z,209.33
2023-03-06T05:00:13.188Z,201.67
2023-03-06T05:00:55.123Z,201.33
2023-03-06T05:01:34.212Z,199.00
2023-03-06T05:02:25.843Z,198.00
2023-03-06T05:03:08.956Z,189.00
2023-03-06T05:03:51.002Z,173.67
2023-03-06T05:04:29.907Z,168.00
2023-03-06T05:05:17.516Z,167.67
2023-03-06T05:06:00.159Z,154.00
2023-03-06T05:06:39.054Z,140.33
2023-03-06T05:07:20.936Z,144.00
2023-03-06T05:08:00.105Z,149.33
2023-03-06T05:08:39.142Z,146.33
2023-03-06T05:09:30.819Z,140.00
2023-03-06T05:10:13.637Z,143.00
2023-03-06T05:10:57.980Z,147.67
2023-03-06T05:11:38.471Z,158.67
2023-03-06T05:12:42.981Z,173.33
2023-03-06T05:14:09.891Z,172.00
2023-03-06T05:14:48.662Z,173.00
2023-03-06T05:15:30.978Z,173.00
2023-03-06T05:16:09.975Z,172.00
2023-03-06T05:16:49.092Z,172.00
2023-03-06T05:17:31.695Z,170.67
2023-03-06T05:18:10.899Z,165.67
2023-03-06T05:18:50.753Z,162.33
2023-03-06T05:19:37.831Z,158.67
2023-03-06T05:20:17.435Z,160.00
2023-03-06T05:22:36.139Z,186.00
2023-03-06T05:23:18.936Z,187.33
2023-03-06T05:24:00.965Z,191.67
2023-03-06T05:24:40.202Z,189.67
2023-03-06T05:25:28.874Z,191.00
2023-03-06T05:26:32.553Z,201.33
2023-03-06T05:27:11.662Z,214.00
2023-03-06T05:27:51.226Z,211.67
2023-03-06T05:28:31.250Z,206.33
2023-03-06T05:29:11.427Z,201.33
2023-03-06T05:29:50.946Z,201.33
2023-03-06T05:30:54.497Z,202.67
2023-03-06T05:31:34.761Z,205.33
2023-03-06T05:33:00.248Z,209.33
2023-03-06T05:33:40.092Z,210.67
2023-03-06T05:34:19.060Z,212.67
2023-03-06T05:34:59.047Z,215.67
2023-03-06T05:35:49.674Z,215.33
2023-03-06T05:36:30.553Z,231.00
2023-03-06T05:37:10.749Z,222.67
2023-03-06T05:37:50.946Z,217.33
2023-03-06T05:38:29.189Z,207.67
2023-03-06T05:39:08.216Z,203.00
2023-03-06T05:39:47.378Z,199.33
2023-03-06T05:40:31.408Z,200.00
2023-03-06T05:41:51.262Z,194.33
2023-03-06T05:42:32.524Z,190.33
2023-03-06T05:43:39.763Z,191.33
2023-03-06T05:44:20.188Z,192.67
2023-03-06T05:44:58.767Z,191.67
2023-03-06T05:45:39.274Z,191.33
2023-03-06T05:46:17.994Z,190.67
2023-03-06T05:46:57.137Z,193.67
2023-03-06T05:47:45.123Z,194.00
2023-03-06T05:48:24.937Z,193.00
2023-03-06T05:49:04.364Z,181.00
2023-03-06T05:49:47.068Z,172.00
2023-03-06T05:50:27.776Z,174.33
2023-03-06T05:51:09.665Z,166.33
2023-03-06T05:51:50.215Z,164.00
2023-03-06T05:52:29.640Z,161.33
2023-03-06T05:53:08.044Z,164.00
2023-03-06T05:55:12.555Z,196.67
2023-03-06T05:55:59.041Z,204.00
2023-03-06T05:57:03.067Z,233.00
2023-03-06T05:58:33.653Z,287.00
2023-03-06T05:59:16.247Z,272.67
2023-03-06T06:00:38.048Z,253.67
2023-03-06T06:01:19.378Z,286.67
2023-03-06T06:03:16.797Z,208.00
2023-03-06T06:03:56.002Z,186.00
2023-03-06T06:04:38.000Z,169.00
2023-03-06T06:05:56.136Z,159.33
2023-03-06T06:07:16.782Z,169.67
2023-03-06T06:08:34.117Z,157.67
2023-03-06T06:09:22.670Z,149.33
2023-03-06T06:10:03.825Z,164.33
2023-03-06T06:10:43.092Z,168.00
2023-03-06T06:11:22.097Z,162.67
2023-03-06T06:12:04.368Z,158.00
2023-03-06T06:12:51.276Z,157.33
2023-03-06T06:13:41.125Z,158.33
2023-03-06T06:14:29.504Z,161.00
2023-03-06T06:15:18.582Z,165.33
2023-03-06T06:16:22.156Z,166.33
2023-03-06T06:17:12.650Z,167.67
2023-03-06T06:19:18.755Z,170.67
2023-03-06T06:19:57.792Z,170.67
2023-03-06T06:20:37.689Z,171.00
2023-03-06T06:23:03.133Z,164.67
2023-03-06T06:24:27.073Z,135.00
2023-03-06T06:26:24.099Z,148.33
2023-03-06T06:28:06.753Z,144.00
2023-03-06T06:29:13.840Z,149.00
2023-03-06T06:30:08.348Z,169.33
2023-03-06T06:31:26.292Z,177.00
2023-03-06T06:32:33.894Z,188.33
2023-03-06T06:34:28.429Z,176.33
2023-03-06T06:35:35.334Z,173.00
2023-03-06T06:37:02.021Z,197.33
2023-03-06T06:38:06.575Z,188.00
2023-03-06T06:42:26.126Z,202.67
2023-03-06T06:42:58.566Z,199.33
2023-03-06T06:43:43.725Z,195.33
2023-03-06T06:45:05.712Z,206.33
2023-03-06T06:45:49.558Z,201.00
2023-03-06T06:47:21.915Z,199.33
2023-03-06T06:48:38.758Z,222.33
2023-03-06T06:49:30.077Z,209.00
2023-03-06T06:50:11.229Z,207.67
2023-03-06T06:51:14.402Z,208.67
2023-03-06T06:54:04.632Z,202.00
2023-03-06T06:55:09.966Z,207.67
2023-03-06T06:57:22.063Z,199.33
2023-03-06T06:58:26.318Z,197.33
2023-03-06T06:59:19.081Z,190.67
2023-03-06T07:00:01.050Z,186.00
2023-03-06T07:00:41.068Z,184.00
2023-03-06T07:01:44.926Z,167.33
2023-03-06T07:03:49.753Z,173.00
2023-03-06T07:06:09.312Z,154.00
2023-03-06T07:07:12.797Z,152.33
2023-03-06T07:08:33.631Z,163.33
2023-03-06T07:09:39.921Z,160.67
2023-03-06T07:11:21.961Z,163.67
2023-03-06T07:12:01.632Z,166.67
2023-03-06T07:13:05.860Z,187.33
2023-03-06T07:15:36.469Z,190.33
2023-03-06T07:16:20.477Z,191.33
2023-03-06T07:17:34.702Z,190.00
2023-03-06T07:19:44.929Z,175.00
2023-03-06T07:20:17.866Z,157.33
2023-03-06T07:20:49.636Z,147.67
2023-03-06T07:21:22.494Z,154.33
2023-03-06T07:21:55.013Z,156.67
2023-03-06T07:22:27.541Z,158.33
2023-03-06T07:23:16.944Z,159.00
2023-03-06T07:25:55.955Z,144.00
2023-03-06T07:27:16.088Z,142.67
2023-03-06T07:28:03.051Z,146.67
2023-03-06T07:29:10.844Z,145.67
2023-03-06T07:29:50.335Z,144.33
2023-03-06T07:30:56.874Z,145.33
2023-03-06T07:31:50.800Z,138.33
2023-03-06T07:32:34.580Z,103.67
2023-03-06T07:33:27.000Z,94.33
2023-03-06T07:34:19.816Z,109.00
2023-03-06T07:35:20.014Z,113.67
2023-03-06T07:36:35.174Z,97.00
2023-03-06T07:37:40.034Z,114.67
2023-03-06T07:43:52.684Z,241.33
2023-03-06T07:44:56.748Z,176.33
2023-03-06T07:46:37.236Z,169.67
2023-03-06T07:48:30.729Z,164.00
2023-03-06T07:50:14.665Z,145.00
2023-03-06T07:51:49.085Z,119.00
2023-03-06T07:52:28.087Z,115.00
2023-03-06T07:53:32.026Z,119.33
2023-03-06T07:55:54.031Z,119.00
2023-03-06T07:57:37.999Z,105.67
2023-03-06T07:58:57.092Z,93.33
2023-03-06T08:00:29.080Z,87.67
2023-03-06T08:01:14.284Z,90.33
2023-03-06T08:01:55.941Z,87.00
2023-03-06T08:03:38.542Z,75.00
2023-03-06T08:05:00.072Z,64.67
2023-03-06T08:06:32.969Z,61.33
2023-03-06T08:07:13.595Z,61.33
2023-03-06T08:08:33.867Z,72.00
2023-03-06T08:09:13.108Z,74.33
2023-03-06T08:09:52.291Z,72.00
2023-03-06T08:10:35.493Z,72.33
2023-03-06T08:11:16.865Z,72.67
2023-03-06T08:12:20.664Z,72.33
2023-03-06T08:13:24.145Z,72.00
2023-03-06T08:14:27.444Z,68.00
2023-03-06T08:16:01.171Z,69.67
2023-03-06T08:16:40.131Z,71.00
2023-03-06T08:17:22.048Z,71.67
2023-03-06T08:18:02.605Z,71.00
2023-03-06T08:18:46.824Z,70.00
2023-03-06T08:20:32.224Z,70.00
2023-03-06T08:21:24.900Z,67.67
2023-03-06T08:22:06.086Z,67.33
2023-03-06T08:22:46.075Z,67.00
2023-03-06T08:23:50.092Z,64.00
2023-03-06T08:25:11.822Z,53.33
2023-03-06T08:26:42.334Z,55.33
2023-03-06T08:27:24.306Z,66.33
2023-03-06T08:28:03.223Z,68.00
2023-03-06T08:29:08.264Z,66.67
2023-03-06T08:30:27.038Z,65.67
2023-03-06T08:31:19.789Z,64.33
2023-03-06T08:32:00.310Z,61.00
2023-03-06T08:32:42.388Z,61.33
2023-03-06T08:33:25.609Z,65.67
2023-03-06T08:34:09.756Z,64.33
2023-03-06T08:34:49.064Z,65.67
2023-03-06T08:35:30.429Z,75.00
2023-03-06T08:36:11.227Z,75.67
2023-03-06T08:38:09.104Z,68.00
2023-03-06T08:38:47.985Z,67.00
2023-03-06T08:39:28.226Z,66.00
2023-03-06T08:40:34.624Z,65.33
2023-03-06T08:44:47.504Z,61.00
2023-03-06T08:45:51.790Z,62.00
2023-03-06T08:46:34.123Z,62.33
2023-03-06T08:47:54.657Z,64.67
2023-03-06T08:48:44.248Z,68.00
2023-03-06T08:49:48.134Z,67.67
2023-03-06T08:52:22.706Z,57.67
2023-03-06T08:53:12.322Z,46.00
2023-03-06T08:55:12.918Z,52.00
2023-03-06T08:55:56.136Z,53.00
2023-03-06T08:56:35.303Z,53.33
2023-03-06T08:57:15.434Z,54.00
2023-03-06T08:57:58.818Z,53.00
2023-03-06T08:59:03.961Z,46.67
2023-03-06T09:00:23.663Z,42.33
2023-03-06T09:01:27.395Z,42.00
2023-03-06T09:02:15.683Z,43.33
2023-03-06T09:04:57.263Z,65.00
2023-03-06T09:06:29.689Z,73.67
2023-03-06T09:08:01.155Z,61.33
2023-03-06T09:09:20.428Z,63.67
2023-03-06T09:10:33.083Z,70.33
2023-03-06T09:11:14.692Z,69.33
2023-03-06T09:11:57.258Z,68.33
2023-03-06T09:12:49.856Z,68.67
2023-03-06T09:13:32.346Z,71.00
2023-03-06T09:14:12.093Z,72.00
2023-03-06T09:14:52.737Z,82.00
2023-03-06T09:15:32.478Z,79.00
2023-03-06T09:16:36.524Z,78.33
2023-03-06T09:18:18.518Z,77.33
2023-03-06T09:19:36.148Z,64.33
2023-03-06T09:20:15.587Z,60.33
2023-03-06T09:20:56.746Z,58.00
2023-03-06T09:21:36.768Z,58.00
2023-03-06T09:22:44.594Z,56.33
2023-03-06T09:24:03.480Z,53.67
2023-03-06T09:24:51.195Z,53.33
2023-03-06T09:25:56.318Z,52.67
2023-03-06T09:28:23.141Z,51.33
2023-03-06T09:29:27.055Z,51.67
2023-03-06T09:30:08.155Z,52.67
2023-03-06T09:30:48.934Z,55.67
2023-03-06T09:31:28.471Z,60.00
2023-03-06T09:33:38.670Z,46.33
2023-03-06T09:34:42.813Z,46.67
2023-03-06T09:37:23.248Z,39.33
2023-03-06T09:38:10.999Z,41.00
2023-03-06T09:41:42.042Z,42.00
2023-03-06T09:42:46.169Z,40.00
2023-03-06T09:43:32.884Z,38.00
2023-03-06T09:44:45.666Z,38.33
2023-03-06T09:47:15.331Z,77.33
2023-03-06T09:48:23.606Z,95.67
2023-03-06T09:50:45.763Z,259.33
2023-03-06T09:51:46.972Z,141.33
2023-03-06T09:53:00.182Z,151.00
2023-03-06T09:54:09.057Z,115.67
2023-03-06T09:54:57.433Z,190.33
2023-03-06T09:55:40.396Z,276.67
2023-03-06T09:56:25.084Z,267.00
2023-03-06T09:57:35.698Z,158.33
2023-03-06T09:58:15.686Z,191.33
2023-03-06T09:59:13.409Z,147.33
2023-03-06T09:59:58.809Z,129.67
2023-03-06T10:00:53.510Z,102.33
2023-03-06T10:01:42.454Z,192.33
2023-03-06T10:02:57.186Z,223.00
2023-03-06T10:04:46.419Z,104.33
2023-03-06T10:05:49.834Z,87.67
2023-03-06T10:06:50.423Z,127.00
2023-03-06T10:09:22.792Z,64.67
2023-03-06T10:10:02.713Z,79.33
2023-03-06T10:11:08.868Z,84.00
2023-03-06T10:12:41.265Z,118.00
2023-03-06T10:14:58.761Z,110.67
2023-03-06T10:15:48.356Z,187.67
2023-03-06T10:16:41.706Z,156.67
2023-03-06T10:17:23.943Z,130.67
2023-03-06T10:18:13.630Z,114.67
2023-03-06T10:19:01.340Z,91.67
2023-03-06T10:19:43.150Z,101.67
2023-03-06T10:20:48.877Z,150.00
2023-03-06T10:21:32.788Z,132.33
2023-03-06T10:22:38.862Z,141.33
2023-03-06T10:23:58.188Z,138.33
2023-03-06T10:27:13.504Z,155.67
2023-03-06T10:28:16.942Z,233.00
2023-03-06T10:29:36.732Z,179.33
2023-03-06T10:30:57.459Z,183.00
2023-03-06T10:32:11.123Z,184.00
2023-03-06T10:32:55.768Z,231.33
2023-03-06T10:33:57.663Z,215.33
2023-03-06T10:34:40.433Z,308.33
2023-03-06T10:35:30.666Z,338.00
2023-03-06T10:36:32.073Z,347.67
2023-03-06T10:37:38.820Z,402.33
2023-03-06T10:38:41.648Z,465.00
2023-03-06T10:39:49.487Z,473.33
2023-03-06T10:41:11.458Z,338.00
2023-03-06T10:42:15.700Z,441.00
2023-03-06T10:43:45.610Z,266.00
2023-03-06T10:45:06.627Z,154.67
2023-03-06T10:48:18.335Z,141.67
2023-03-06T10:49:21.014Z,135.33
2023-03-06T10:50:03.076Z,172.33
2023-03-06T10:50:46.276Z,161.67
2023-03-06T10:51:30.270Z,162.00
2023-03-06T10:52:26.237Z,123.33
2023-03-06T10:53:26.865Z,113.67
2023-03-06T10:55:34.833Z,274.33
2023-03-06T11:01:42.307Z,99.00
2023-03-06T11:02:38.711Z,99.67
2023-03-06T11:03:33.285Z,103.00
2023-03-06T11:04:21.045Z,83.00
2023-03-06T11:05:25.066Z,84.67
2023-03-06T11:06:49.475Z,99.00
2023-03-06T11:07:33.829Z,99.00
2023-03-06T11:11:02.717Z,92.00
2023-03-06T11:11:43.120Z,89.33
2023-03-06T11:13:27.997Z,140.33
2023-03-06T11:15:10.524Z,147.67
2023-03-06T11:17:29.922Z,82.33
2023-03-06T11:18:25.997Z,84.00
2023-03-06T11:19:21.059Z,95.33
2023-03-06T11:20:50.123Z,203.33
2023-03-06T11:23:35.286Z,79.67
2023-03-06T11:26:04.930Z,134.33
2023-03-06T11:27:02.782Z,134.33
2023-03-06T11:27:47.244Z,114.33
2023-03-06T11:30:58.863Z,96.00
2023-03-06T11:32:43.550Z,181.33
2023-03-06T11:33:45.664Z,63.00
2023-03-06T11:35:22.448Z,279.00
2023-03-06T11:36:31.415Z,92.33
2023-03-06T11:37:50.502Z,251.67
2023-03-06T11:38:59.641Z,122.00
2023-03-06T11:40:39.856Z,69.00
2023-03-06T11:41:52.509Z,86.00
2023-03-06T11:43:37.096Z,106.00
2023-03-06T11:45:26.328Z,60.00
2023-03-06T11:46:20.422Z,235.67
2023-03-06T11:47:15.676Z,100.00
2023-03-06T11:48:03.468Z,51.00
2023-03-06T11:50:42.536Z,57.67
2023-03-06T11:51:21.739Z,43.33
2023-03-06T11:52:23.972Z,31.33
2023-03-06T11:54:33.801Z,44.00
2023-03-06T11:55:40.658Z,49.33
2023-03-06T11:57:30.351Z,59.33
2023-03-06T11:58:27.202Z,61.00
2023-03-06T11:59:30.244Z,62.00
2023-03-06T12:00:28.709Z,62.67
2023-03-06T12:01:24.285Z,62.00
2023-03-06T12:02:57.365Z,65.67
2023-03-06T12:03:51.428Z,64.00
2023-03-06T12:05:12.637Z,56.00
2023-03-06T12:07:16.939Z,47.67
2023-03-06T12:10:14.476Z,53.33
2023-03-06T12:12:07.398Z,55.00
2023-03-06T12:13:16.860Z,58.00
2023-03-06T12:13:55.879Z,60.67
2023-03-06T12:15:18.803Z,61.00
2023-03-06T12:16:42.362Z,52.67
2023-03-06T12:17:50.447Z,50.00
2023-03-06T12:20:14.984Z,45.00
2023-03-06T12:21:06.238Z,36.67
2023-03-06T12:22:02.317Z,39.00
2023-03-06T12:24:25.921Z,41.00
2023-03-06T12:25:44.733Z,42.00
2023-03-06T12:27:01.160Z,45.67
2023-03-06T12:29:09.605Z,57.67
2023-03-06T12:31:43.161Z,51.00
2023-03-06T12:32:35.346Z,44.00
2023-03-06T12:33:58.992Z,39.00
2023-03-06T12:34:39.605Z,38.67
2023-03-06T12:35:46.337Z,40.00
2023-03-06T12:36:52.739Z,45.67
2023-03-06T12:39:52.309Z,56.00
2023-03-06T12:41:03.116Z,62.33
2023-03-06T12:42:23.442Z,75.67
2023-03-06T12:43:57.015Z,71.33
2023-03-06T12:44:36.746Z,67.00
2023-03-06T12:45:49.078Z,66.33
2023-03-06T12:47:48.197Z,67.00
2023-03-06T12:48:32.747Z,84.00
2023-03-06T12:49:31.844Z,104.33
2023-03-06T12:50:23.428Z,101.00
2023-03-06T12:51:11.590Z,92.33
2023-03-06T12:51:52.162Z,85.33
2023-03-06T12:52:39.217Z,84.00
2023-03-06T12:54:30.452Z,77.33
2023-03-06T12:56:13.757Z,73.00
2023-03-06T12:56:56.918Z,75.00
2023-03-06T12:58:52.621Z,75.00
2023-03-06T13:02:19.453Z,69.33
2023-03-06T13:04:43.966Z,87.67
2023-03-06T13:05:52.160Z,129.67
2023-03-06T13:06:54.323Z,285.67
2023-03-06T13:09:49.972Z,123.00
2023-03-06T13:11:32.788Z,119.00
2023-03-06T13:12:56.205Z,101.00
2023-03-06T13:15:42.964Z,134.33
2023-03-06T13:16:34.226Z,122.67
2023-03-06T13:17:38.647Z,111.67
2023-03-06T13:19:24.915Z,105.33
2023-03-06T13:20:18.406Z,95.00
2023-03-06T13:22:29.335Z,91.00
2023-03-06T13:23:31.211Z,94.33
2023-03-06T13:24:37.201Z,112.00
2023-03-06T13:26:49.979Z,136.67
2023-03-06T13:27:53.632Z,134.00
2023-03-06T13:29:13.668Z,130.00
2023-03-06T13:30:21.273Z,129.00
2023-03-06T13:32:14.786Z,115.33
2023-03-06T13:34:31.858Z,72.00
2023-03-06T13:35:48.298Z,69.00
2023-03-06T13:39:10.845Z,70.67
2023-03-06T13:40:15.485Z,65.67
2023-03-06T13:40:55.706Z,70.00
2023-03-06T13:41:57.245Z,74.33
2023-03-06T13:43:12.608Z,77.00
2023-03-06T13:44:26.022Z,89.00
2023-03-06T13:46:35.165Z,64.00
2023-03-06T13:47:17.754Z,64.67
2023-03-06T13:48:43.708Z,68.00
2023-03-06T13:49:26.160Z,97.00
2023-03-06T13:50:35.698Z,124.33
2023-03-06T13:51:24.780Z,104.00
2023-03-06T13:52:04.940Z,101.33
2023-03-06T13:52:57.455Z,100.67
2023-03-06T13:53:37.961Z,88.00
2023-03-06T13:56:59.268Z,69.33
2023-03-06T13:58:01.959Z,88.67
2023-03-06T13:59:14.234Z,136.00
2023-03-06T14:00:22.899Z,184.67
2023-03-06T14:01:50.165Z,137.67
2023-03-06T14:02:41.276Z,109.00
2023-03-06T14:05:18.649Z,122.67
2023-03-06T14:05:59.215Z,118.33
2023-03-06T14:06:49.715Z,126.67
2023-03-06T14:07:35.873Z,171.00
2023-03-06T14:08:32.354Z,154.33